Data for 08/03/2007

Time Sea-Level Adjusted Pressure Absolute Pressure Temperature Relative Humidity Dew Point   
(mb) (inHg) (mb) (inHg) (C) (F) (%) (C) (F)
00:05 1020 30.12 849 25.07 20.5 69 46 8.7 47.7
00:10 1020 30.12 849 25.07 20.9 69.6 45 8.6 47.5
00:15 1020 30.12 849 25.07 21.3 70.4 43 8.5 47.3
00:20 1020 30.12 849 25.07 21.6 70.9 44 8.8 47.9
00:25 1020 30.12 849 25.07 21.6 70.9 43 8.6 47.4
00:30 1020 30.12 849 25.07 21.4 70.4 45 9 48.2
00:35 1020 30.12 849 25.07 20.9 69.5 50 10.2 50.3
00:40 1020 30.12 849 25.07 20.2 68.4 53 10.3 50.6
00:45 1020 30.12 849 25.07 20.1 68.1 52 10.1 50.2
00:50 1020 30.12 849 25.07 20.1 68.1 52 9.9 49.9
00:55 1020 30.12 849 25.07 20.1 68.2 50 9.5 49
01:00 1020 30.12 849 25.07 20.2 68.4 50 9.7 49.5
01:05 1020 30.12 849 25.07 20.2 68.4 50 9.7 49.4
01:10 1020 30.12 849 25.07 20 68 51 9.7 49.4
01:15 1020 30.12 849 25.07 20.1 68.1 50 9.5 49.1
01:20 1020 30.12 849 25.07 20.3 68.5 48 9.1 48.4
01:25 1020 30.12 849 25.07 20.5 68.9 49 9.4 49
01:30 1020 30.12 849 25.07 20.4 68.8 48 9.3 48.8
01:35 1020 30.12 849 25.07 20.4 68.7 49 9.4 48.8
01:40 1020 30.12 849 25.07 20.5 68.8 50 10 50
01:45 1020 30.12 849 25.07 20.4 68.6 49 9.5 49.2
01:50 1020 30.12 849 25.07 20.2 68.3 53 10.5 50.8
01:55 1020 30.12 849 25.07 20.1 68.2 52 10.1 50.2
02:00 1020 30.12 849 25.07 20.1 68.2 50 9.6 49.3
02:05 1020 30.12 849 25.07 20.1 68.2 50 9.6 49.3
02:10 1020 30.12 849 25.07 20 67.9 52 9.9 49.8
02:15 1020 30.12 849 25.07 19.9 67.8 50 9.4 49
02:20 1020 30.12 849 25.07 20.1 68.2 49 9.3 48.7
02:25 1020 30.12 849 25.07 20.3 68.6 47 8.9 48.1
02:30 1020 30.12 849 25.07 20.6 69 47 9 48.3
02:35 1020 30.12 849 25.07 20.7 69.3 46 9 48.2
02:40 1020 30.12 849 25.07 20.8 69.4 45 8.6 47.5
02:45 1020 30.12 849 25.07 20.9 69.6 46 8.9 48
02:50 1019 30.09 849 25.07 20.9 69.5 46 9 48.1
02:55 1019 30.09 849 25.07 20.9 69.6 46 8.9 48
03:00 1019 30.09 848 25.04 20.9 69.7 48 9.5 49.1
03:05 1019 30.09 848 25.04 20.6 69.1 48 9.4 49
03:10 1019 30.09 848 25.04 20.5 68.8 47 9.1 48.3
03:15 1019 30.09 848 25.04 20.5 68.8 52 10.3 50.6
03:20 1019 30.09 848 25.04 20.1 68.3 51 9.9 49.8
03:25 1019 30.09 848 25.04 20 68 52 10.1 50.2
03:30 1019 30.09 848 25.04 19.9 67.7 52 9.7 49.5
03:35 1019 30.09 848 25.04 20.3 68.5 44 7.9 46.2
03:40 1019 30.09 848 25.04 21.2 70.1 46 9.4 48.9
03:45 1019 30.09 848 25.04 20.7 69.3 51 10.4 50.7
03:50 1019 30.09 848 25.04 20.3 68.6 51 10 49.9
03:55 1019 30.09 848 25.04 20.3 68.6 52 10.3 50.5
04:00 1019 30.09 848 25.04 20.1 68.2 54 10.5 50.9
04:05 1019 30.09 848 25.04 19.7 67.4 53 9.9 49.7
04:10 1019 30.09 849 25.07 19.7 67.4 54 10.1 50.2
04:15 1019 30.09 849 25.07 19.6 67.3 52 9.7 49.5
04:20 1019 30.09 849 25.07 19.6 67.3 52 9.7 49.5
04:25 1019 30.09 849 25.07 19.6 67.2 54 10.1 50.1
04:30 1019 30.09 848 25.04 19.4 66.8 53 9.6 49.2
04:35 1019 30.09 848 25.04 19.6 67.2 53 9.9 49.9
04:40 1019 30.09 848 25.04 19.7 67.4 53 9.9 49.9
04:45 1019 30.09 848 25.04 19.6 67.3 56 10.6 51.1
04:50 1019 30.09 848 25.04 19.1 66.3 56 10.3 50.5
04:55 1019 30.09 848 25.04 18.7 65.7 58 10.4 50.8
05:00 1019 30.09 848 25.04 18.5 65.3 58 10 50.1
05:05 1019 30.09 848 25.04 18.6 65.4 58 10.2 50.4
05:10 1019 30.09 848 25.04 18.7 65.6 56 9.9 49.8
05:15 1019 30.09 848 25.04 18.7 65.7 55 9.7 49.5
05:20 1019 30.09 848 25.04 18.6 65.6 56 9.9 49.8
05:25 1019 30.09 848 25.04 18.7 65.7 58 10.5 50.9
05:30 1019 30.09 848 25.04 19.1 66.3 54 9.6 49.3
05:35 1019 30.09 848 25.04 19.3 66.8 51 9 48.3
05:40 1019 30.09 848 25.04 19.3 66.7 57 10.7 51.2
05:45 1019 30.09 848 25.04 19.2 66.5 56 10.3 50.6
05:50 1019 30.09 848 25.04 18.7 65.6 56 9.9 49.8
05:55 1019 30.09 848 25.04 18.5 65.2 58 10.2 50.4
06:00 1019 30.09 848 25.04 18.4 65.2 55 9.4 48.9
06:05 1019 30.09 848 25.04 18.9 65.9 54 9.5 49.1
06:10 1019 30.09 848 25.04 19.2 66.5 54 9.8 49.7
06:15 1019 30.09 848 25.04 19 66.3 55 9.8 49.6
06:20 1019 30.09 848 25.04 19 66.2 54 9.6 49.3
06:25 1019 30.09 849 25.07 19.2 66.5 55 10 50
06:30 1020 30.12 849 25.07 19.4 66.9 52 9.3 48.7
06:35 1020 30.12 849 25.07 19.6 67.3 51 9.4 48.9
06:40 1020 30.12 849 25.07 19.6 67.3 52 9.5 49.2
06:45 1020 30.12 849 25.07 19.7 67.5 51 9.6 49.2
06:50 1020 30.12 849 25.07 19.8 67.7 51 9.4 48.9
06:55 1020 30.12 849 25.07 20 68 48 8.7 47.6
07:00 1020 30.12 849 25.07 20.3 68.5 48 9.1 48.4
07:05 1020 30.12 849 25.07 20.3 68.5 48 9.2 48.5
07:10 1020 30.12 849 25.07 20.2 68.3 49 9.2 48.5
07:15 1020 30.12 849 25.07 20 67.9 50 9.5 49
07:20 1020 30.12 849 25.07 19.7 67.5 54 10.3 50.5
07:25 1020 30.12 849 25.07 19.7 67.5 56 10.7 51.2
07:30 1020 30.12 849 25.07 19.8 67.7 51 9.4 48.9
07:35 1020 30.12 849 25.07 19.8 67.6 50 9.2 48.6
07:40 1020 30.12 849 25.07 20 68 46 8.2 46.7
07:45 1020 30.12 849 25.07 20.3 68.6 46 8.5 47.2
07:50 1020 30.12 849 25.07 20.3 68.5 46 8.4 47.2
07:55 1020 30.12 849 25.07 20.2 68.4 46 8.4 47.1
08:00 1020 30.12 849 25.07 20.4 68.8 45 8.2 46.8
08:05 1020 30.12 849 25.07 20.6 69.1 45 8.4 47
08:10 1020 30.12 849 25.07 20.7 69.2 44 8.2 46.7
08:15 1020 30.12 849 25.07 20.6 69 45 8.3 47
08:20 1020 30.12 849 25.07 20.6 69.1 45 8.4 47.1
08:25 1020 30.12 849 25.07 20.7 69.2 44 8.1 46.7
08:30 1020 30.12 849 25.07 20.7 69.2 44 8.2 46.8
08:35 1020 30.12 849 25.07 20.8 69.4 45 8.5 47.2
08:40 1020 30.12 849 25.07 20.7 69.2 44 8.2 46.7
08:45 1020 30.12 849 25.07 20.7 69.2 49 9.7 49.4
08:50 1020 30.12 849 25.07 20.7 69.3 45 8.5 47.4
08:55 1020 30.12 849 25.07 20.7 69.3 52 10.6 51.1
09:00 1020 30.12 849 25.07 20.7 69.3 46 8.8 47.8
09:05 1020 30.12 849 25.07 20.8 69.5 45 8.6 47.5
09:10 1020 30.12 849 25.07 21 69.7 45 8.7 47.7
09:15 1020 30.12 849 25.07 21 69.8 46 9 48.3
09:20 1020 30.12 849 25.07 21 69.8 46 9 48.1
09:25 1020 30.12 849 25.07 21 69.9 44 8.6 47.6
09:30 1020 30.12 849 25.07 21.1 69.9 45 8.9 48.1
09:35 1020 30.12 849 25.07 21.1 70 45 8.9 48
09:40 1020 30.12 849 25.07 21.4 70.5 44 8.6 47.5
09:45 1020 30.12 849 25.07 22 71.6 42 8.8 47.8
09:50 1020 30.12 849 25.07 22 71.6 44 9.3 48.7
09:55 1020 30.12 849 25.07 22 71.5 42 8.5 47.3
10:00 1020 30.12 849 25.07 22.4 72.4 40 8.3 47
10:05 1020 30.12 849 25.07 22.8 73.1 40 8.7 47.6
10:10 1020 30.12 849 25.07 22.7 72.9 41 8.8 47.9
10:15 1020 30.12 849 25.07 22.6 72.7 41 8.9 47.9
10:20 1020 30.12 849 25.07 22.6 72.8 41 8.9 48
10:25 1019 30.09 849 25.07 22.7 72.8 42 9.4 48.8
10:30 1019 30.09 848 25.04 22.8 73 42 9.5 49.2
10:35 1019 30.09 848 25.04 23.1 73.7 38 8.2 46.7
10:40 1019 30.09 848 25.04 23.7 74.6 35 7.6 45.7
10:45 1019 30.09 848 25.04 23.8 74.9 35 7.8 46
10:50 1019 30.09 848 25.04 23.9 75 37 8.5 47.3
10:55 1019 30.09 848 25.04 24.1 75.3 35 7.8 46.1
11:00 1019 30.09 848 25.04 24.4 75.9 35 8.1 46.5
11:05 1019 30.09 848 25.04 24.6 76.3 35 8.4 47.1
11:10 1019 30.09 848 25.04 24.9 76.8 33 7.9 46.3
11:15 1019 30.09 848 25.04 25 77.1 33 7.8 46
11:20 1019 30.09 848 25.04 25.3 77.6 34 8.7 47.6
11:25 1019 30.09 848 25.04 25.2 77.3 34 8.5 47.3
11:30 1019 30.09 848 25.04 25 77.1 35 8.6 47.5
11:35 1019 30.09 848 25.04 25 77 35 8.8 47.9
11:40 1019 30.09 849 25.07 25 76.9 35 8.6 47.5
11:45 1019 30.09 849 25.07 24.8 76.7 40 10.6 51
11:50 1019 30.09 849 25.07 24.3 75.7 40 10 49.9
11:55 1019 30.09 849 25.07 23.7 74.6 44 10.8 51.4
12:00 1019 30.09 849 25.07 23.9 74.9 44 11 51.8
12:05 1019 30.09 849 25.07 23.2 73.7 47 11.3 52.3
12:10 1019 30.09 849 25.07 23 73.4 45 10.6 51.1
12:15 1019 30.09 849 25.07 23.1 73.5 44 10.2 50.4
12:20 1019 30.09 849 25.07 24.1 75.3 41 10.3 50.6
12:25 1019 30.09 849 25.07 24.6 76.2 39 10.1 50.1
12:30 1019 30.09 849 25.07 24.7 76.4 42 11 51.8
12:35 1019 30.09 848 25.04 25.6 78.1 38 10.4 50.7
12:40 1019 30.09 848 25.04 25.9 78.5 38 10.6 51
12:45 1019 30.09 848 25.04 26.4 79.6 35 9.9 49.9
12:50 1019 30.09 848 25.04 26.7 80 34 9.8 49.6
12:55 1019 30.09 848 25.04 26.7 80 33 9.3 48.8
13:00 1019 30.09 848 25.04 27.3 81.2 32 9.5 49
13:05 1019 30.09 848 25.04 28.5 83.3 29 9.2 48.5
13:10 1019 30.09 848 25.04 28.7 83.6 29 9 48.2
13:15 1019 30.09 848 25.04 28.8 83.8 28 8.9 47.9
13:20 1019 30.09 848 25.04 29 84.2 26 8.1 46.5
13:25 1019 30.09 848 25.04 29 84.2 26 8.1 46.5
13:30 1019 30.09 848 25.04 29.7 85.4 25 7.9 46.2
13:35 1019 30.09 848 25.04 29.9 85.8 25 8.2 46.7
13:40 1019 30.09 848 25.04 29 84.2 26 7.7 45.9
13:45 1019 30.09 848 25.04 29 84.2 25 7.4 45.3
13:50 1019 30.09 848 25.04 28.9 84 25 7.3 45.1
13:55 1019 30.09 848 25.04 28.4 83 24 6 42.8
14:00 1019 30.09 848 25.04 29.4 84.9 23 6.3 43.4
14:05 1019 30.09 848 25.04 29.9 85.9 22 6.1 42.9
14:10 1018 30.06 848 25.04 29.8 85.7 23 7 44.6
14:15 1018 30.06 848 25.04 29.8 85.7 23 6.9 44.5
14:20 1018 30.06 848 25.04 29.9 85.9 22 6.5 43.7
14:25 1018 30.06 848 25.04 29.9 85.9 22 6.4 43.6
14:30 1018 30.06 848 25.04 30.4 86.8 21 5.7 42.2
14:35 1018 30.06 847 25.01 30.1 86.2 22 6.3 43.4
14:40 1018 30.06 847 25.01 30.9 87.6 20 5.7 42.2
14:45 1018 30.06 847 25.01 30.8 87.5 20 5.6 42.1
14:50 1018 30.06 847 25.01 30.3 86.5 21 5.9 42.7
14:55 1018 30.06 847 25.01 30.8 87.4 19 5.1 41.2
15:00 1018 30.06 847 25.01 30.6 87 21 5.8 42.4
15:05 1018 30.06 847 25.01 30.6 87 18 4.2 39.6
15:10 1018 30.06 847 25.01 30.5 86.8 20 5.4 41.7
15:15 1018 30.06 847 25.01 31.2 88.2 16 2.6 36.7
15:20 1018 30.06 847 25.01 30.9 87.6 18 3.9 39
15:25 1017 30.03 847 25.01 31.2 88.1 18 4 39.3
15:30 1017 30.03 847 25.01 31.6 88.9 16 3.3 38
15:35 1017 30.03 846 24.98 32 89.6 15 2.8 37.1
15:40 1017 30.03 846 24.98 31.6 88.8 16 2.9 37.2
15:45 1017 30.03 846 24.98 31.4 88.5 16 2.5 36.5
15:50 1017 30.03 846 24.98 31.8 89.3 15 2.2 35.9
15:55 1017 30.03 846 24.98 31.9 89.3 15 2.7 36.9
16:00 1017 30.03 846 24.98 31.5 88.8 15 2.2 36
16:05 1017 30.03 846 24.98 31.4 88.6 14 1.6 34.8
16:10 1017 30.03 846 24.98 30.5 86.9 16 1.8 35.2
16:15 1017 30.03 846 24.98 30.4 86.6 16 2.1 35.7
16:20 1017 30.03 846 24.98 30.6 87 17 2.9 37.2
16:25 1017 30.03 846 24.98 30.5 86.9 16 2.2 36
16:30 1017 30.03 846 24.98 30.4 86.6 18 3.6 38.4
16:35 1017 30.03 846 24.98 29.9 85.9 17 2.8 37.1
16:40 1017 30.03 846 24.98 30 86 16 2 35.6
16:45 1017 30.03 846 24.98 30.4 86.6 16 2 35.5
16:50 1017 30.03 846 24.98 30.4 86.7 16 1.9 35.3
16:55 1017 30.03 846 24.98 30.3 86.6 18 4 39.1
17:00 1017 30.03 846 24.98 30.1 86.3 16 2.1 35.9
17:05 1017 30.03 846 24.98 30.2 86.4 18 3.6 38.5
17:10 1017 30.03 846 24.98 30.1 86.1 19 4.2 39.6
17:15 1017 30.03 846 24.98 30.1 86.2 17 2.9 37.3
17:20 1017 30.03 846 24.98 29.9 85.8 18 3.4 38.1
17:25 1017 30.03 846 24.98 29.8 85.6 16 1.6 35
17:30 1017 30.03 846 24.98 29.6 85.3 18 3 37.5
17:35 1017 30.03 846 24.98 29.4 85 20 4.5 40.1
17:40 1016 30 846 24.98 28.9 84 21 4.4 39.8
17:45 1016 30 846 24.98 28.9 83.9 19 3.3 38
17:50 1016 30 845 24.95 29.6 85.2 20 4.3 39.7
17:55 1016 30 845 24.95 29.9 85.8 16 1.8 35.2
18:00 1016 30 845 24.95 30 86 18 3.3 37.9
18:05 1016 30 845 24.95 30.1 86.2 17 3.1 37.5
18:10 1016 30 845 24.95 30.2 86.3 15 1.4 34.5
18:15 1016 30 845 24.95 30.1 86.3 17 2.7 36.8
18:20 1016 30 845 24.95 30.3 86.5 18 3.5 38.3
18:25 1016 30 845 24.95 30.2 86.3 19 4.2 39.6
18:30 1016 30 845 24.95 30 86 17 2.6 36.7
18:35 1016 30 845 24.95 30 85.9 21 5.6 42
18:40 1016 30 845 24.95 29.9 85.9 16 1.8 35.3
18:45 1016 30 845 24.95 29.9 85.8 17 2.9 37.2
18:50 1016 30 845 24.95 29.7 85.4 16 1.3 34.3
18:55 1016 30 845 24.95 29.6 85.2 19 3.5 38.3
19:00 1016 30 845 24.95 29.3 84.8 18 2.8 37.1
19:05 1016 30 845 24.95 29.1 84.4 18 2.6 36.6
19:10 1016 30 845 24.95 29.1 84.4 18 2.6 36.6
19:15 1016 30 845 24.95 29 84.2 21 4.6 40.2
19:20 1016 30 845 24.95 28.8 83.9 20 3.7 38.7
19:25 1016 30 845 24.95 28.7 83.6 25 7 44.5
19:30 1016 30 845 24.95 28.3 83 22 4.9 40.8
19:35 1016 30 845 24.95 28 82.4 23 5.1 41.2
19:40 1016 30 845 24.95 27.5 81.5 23 4.9 40.9
19:45 1016 30 845 24.95 27.1 80.9 22 4.1 39.4
19:50 1016 30 845 24.95 26.9 80.5 22 3.8 38.8
19:55 1016 30 845 24.95 26.8 80.3 22 3.9 38.9
20:00 1016 30 845 24.95 26.9 80.3 22 3.7 38.7
20:05 1016 30 845 24.95 26.8 80.3 22 3.7 38.7
20:10 1016 30 845 24.95 26.9 80.4 22 3.5 38.4
20:15 1017 30.03 846 24.98 26.7 80.1 27 6.2 43.2
20:20 1017 30.03 846 24.98 26.1 79 30 7.5 45.5
20:25 1017 30.03 846 24.98 25.8 78.4 30 7.1 44.8
20:30 1017 30.03 846 24.98 25.8 78.5 28 6.2 43.2
20:35 1016 30 845 24.95 25.6 78.1 30 6.9 44.5
20:40 1016 30 845 24.95 25.7 78.2 27 5.7 42.2
20:45 1016 30 845 24.95 26.3 79.4 23 4 39.2
20:50 1016 30 846 24.98 25.8 78.4 31 7.7 45.9
20:55 1016 30 845 24.95 24.1 75.4 33 7 44.6
21:00 1016 30 846 24.98 23.7 74.7 33 6.9 44.4
21:05 1017 30.03 846 24.98 23.6 74.5 36 8 46.4
21:10 1017 30.03 846 24.98 22.9 73.3 38 7.9 46.2
21:15 1017 30.03 846 24.98 22.9 73.2 38 8 46.3
21:20 1017 30.03 846 24.98 22.7 72.8 43 9.7 49.5
21:25 1017 30.03 847 25.01 22.1 71.8 43 9 48.2
21:30 1018 30.06 847 25.01 21.9 71.5 43 9 48.3
21:35 1018 30.06 847 25.01 22 71.5 42 8.7 47.6
21:40 1018 30.06 847 25.01 22.2 72 41 8.4 47.1
21:45 1018 30.06 847 25.01 22.1 71.8 43 9.1 48.4
21:50 1018 30.06 847 25.01 22.1 71.8 43 9.2 48.6
21:55 1018 30.06 847 25.01 22.1 71.8 34 5.8 42.5
22:00 1018 30.06 847 25.01 23.2 73.7 33 6 42.9
22:05 1017 30.03 847 25.01 23.4 74 32 6 42.9
22:10 1018 30.06 847 25.01 23.2 73.8 33 6.2 43.2
22:15 1018 30.06 847 25.01 23 73.4 35 6.8 44.3
22:20 1018 30.06 847 25.01 22.6 72.6 41 8.8 47.8
22:25 1018 30.06 847 25.01 22.2 71.9 37 7.2 44.9
22:30 1018 30.06 847 25.01 22.2 71.9 35 6.4 43.4
22:35 1018 30.06 847 25.01 22.4 72.3 35 6.5 43.7
22:40 1018 30.06 847 25.01 22.2 71.9 42 8.8 47.9
22:45 1018 30.06 847 25.01 22 71.5 38 7 44.7
22:50 1018 30.06 847 25.01 21.9 71.4 36 6.5 43.7
22:55 1018 30.06 847 25.01 22.1 71.8 35 6.2 43.2
23:00 1017 30.03 847 25.01 22.3 72.1 35 6.2 43.2
23:05 1018 30.06 847 25.01 22.3 72.1 35 6.3 43.3
23:10 1018 30.06 847 25.01 22.1 71.8 38 7.5 45.5
23:15 1018 30.06 847 25.01 21.9 71.3 37 6.6 43.9
23:20 1018 30.06 847 25.01 21.9 71.3 37 6.8 44.2
23:25 1018 30.06 847 25.01 21.7 71.1 39 7.3 45.2
23:30 1018 30.06 847 25.01 21.6 70.8 40 7.7 45.8
23:35 1018 30.06 847 25.01 21.4 70.6 39 7.2 44.9
23:40 1018 30.06 847 25.01 21.4 70.4 39 7 44.6
23:45 1017 30.03 847 25.01 21.1 70 40 7.1 44.8
23:50 1017 30.03 847 25.01 21 69.8 41 7.2 45
23:55 1018 30.06 847 25.01 20.9 69.6 43 8 46.3
24:00 1018 30.06 847 25.01 20.9 69.7 44 8.5 47.3